Arcadia, Utah
Current Conditions -  °F | °C
As of 6:53 PM on Monday 24 Nov 2014 (Local Time) from KPUC Reporting Station
Clear Clear  
Wind Chill: -4°   Ceiling: Unl
Heat Index: -1°   Visibility: 10mi
Dew Point: -12°   Wind: 5mph
Humidity: 45%   Direction: 290°WNW
Pressure: 30.31"   Gusts: NA
Location:  39.9707°N, 110.477°W
Report Text: KPUC 250153Z AUTO 29004KT 10SM CLR M01/M12 A3031 RMK AO2 SLP306 T10111117
Loading
Personal Weather Stations






























Interactive Weather Map New forecast layout! Learn more

10-Day Weather Forecast

Advertisements
Track Severe Weather on mobile